Time;durP1;ratioP1;P1;durP2;ratioP2;P2;SDS_P1;SDS_P2;PMS_P1;PMS_P2;Temp;Humidity;BMP_temperature;BMP_pressure;BME280_temperature;BME280_humidity;BME280_pressure;Samples;Min_cycle;Max_cycle;Signal;HPM_P1;HPM_P2
2023/07/07 00:00:01;;;;;;;7.00;6.40;;;;;;;;;;5054862;28;20459;-81
2023/07/07 00:02:29;;;;;;;10.13;6.80;;;;;;;;;;5049622;28;20450;-80
2023/07/07 00:04:56;;;;;;;7.33;6.07;;;;;;;;;;5049493;28;20444;-81
2023/07/07 00:07:23;;;;;;;8.13;7.33;;;;;;;;;;5053802;28;20464;-81
2023/07/07 00:09:50;;;;;;;8.17;7.47;;;;;;;;;;5048303;28;20483;-80
2023/07/07 00:12:17;;;;;;;7.30;6.67;;;;;;;;;;5050431;28;20433;-81
2023/07/07 00:14:44;;;;;;;7.20;6.50;;;;;;;;;;5052314;28;21018;-81
2023/07/07 00:17:12;;;;;;;8.40;7.00;;;;;;;;;;5049257;28;20436;-81
2023/07/07 00:19:39;;;;;;;6.90;6.20;;;;;;;;;;5050760;28;20830;-80
2023/07/07 00:22:06;;;;;;;5.97;5.47;;;;;;;;;;5054113;28;20459;-81
2023/07/07 00:24:33;;;;;;;7.47;6.73;;;;;;;;;;5051858;28;21015;-81
2023/07/07 00:27:00;;;;;;;7.83;7.03;;;;;;;;;;5054302;28;20422;-80
2023/07/07 00:29:26;;;;;;;9.10;8.23;;;;;;;;;;5045558;28;21001;-80
2023/07/07 00:31:53;;;;;;;9.00;7.43;;;;;;;;;;5051353;28;20457;-81
2023/07/07 00:34:19;;;;;;;10.80;7.90;;;;;;;;;;5053724;28;20467;-80
2023/07/07 00:36:47;;;;;;;7.83;7.10;;;;;;;;;;5052620;28;20451;-81
2023/07/07 00:39:13;;;;;;;8.10;7.30;;;;;;;;;;5048193;28;20459;-81
2023/07/07 00:41:40;;;;;;;9.80;6.57;;;;;;;;;;5049943;28;20411;-80
2023/07/07 00:44:07;;;;;;;8.60;6.80;;;;;;;;;;5044310;28;20808;-80
2023/07/07 00:46:34;;;;;;;8.07;7.23;;;;;;;;;;5046534;28;20448;-81
2023/07/07 00:49:02;;;;;;;13.60;8.43;;;;;;;;;;5051012;28;20486;-80
2023/07/07 00:51:31;;;;;;;8.07;6.70;;;;;;;;;;5053822;28;20465;-80
2023/07/07 00:53:59;;;;;;;7.73;7.00;;;;;;;;;;5051926;28;20483;-80
2023/07/07 00:56:30;;;;;;;8.90;7.50;;;;;;;;;;5050808;28;20465;-80
2023/07/07 00:59:00;;;;;;;10.27;7.83;;;;;;;;;;5045974;28;20479;-80
2023/07/07 01:01:26;;;;;;;10.20;9.20;;;;;;;;;;5053240;28;20454;-80
2023/07/07 01:03:54;;;;;;;7.70;7.00;;;;;;;;;;5045475;28;20458;-80
2023/07/07 01:06:23;;;;;;;8.97;8.20;;;;;;;;;;5053289;28;20801;-80
2023/07/07 01:08:52;;;;;;;10.73;7.97;;;;;;;;;;5053250;28;20453;-80
2023/07/07 01:11:20;;;;;;;9.53;7.73;;;;;;;;;;5048540;28;20467;-80
2023/07/07 01:13:46;;;;;;;8.70;7.77;;;;;;;;;;5052963;28;20491;-80
2023/07/07 01:16:17;;;;;;;10.20;9.30;;;;;;;;;;5045208;28;20471;-80
2023/07/07 01:18:49;;;;;;;9.73;8.30;;;;;;;;;;5044934;28;20449;-80
2023/07/07 01:21:22;;;;;;;10.90;8.07;;;;;;;;;;5049672;28;20415;-80
2023/07/07 01:24:18;;;;;;;9.87;8.87;;;;;;;;;;5041733;28;20984;-81
2023/07/07 01:27:10;;;;;;;9.60;8.70;;;;;;;;;;5046945;28;20455;-81
2023/07/07 01:29:55;;;;;;;10.30;9.30;;;;;;;;;;5028921;28;20538;-81
2023/07/07 01:32:24;;;;;;;13.37;9.17;;;;;;;;;;5045702;28;20442;-81
2023/07/07 01:34:54;;;;;;;9.40;8.30;;;;;;;;;;5046792;28;20574;-81
2023/07/07 01:37:20;;;;;;;9.60;7.43;;;;;;;;;;5050407;28;20963;-81
2023/07/07 01:39:47;;;;;;;9.53;8.17;;;;;;;;;;5046029;28;20894;-80
2023/07/07 01:42:15;;;;;;;8.77;7.93;;;;;;;;;;5049103;28;20491;-80
2023/07/07 01:44:46;;;;;;;12.63;9.93;;;;;;;;;;5030760;28;20456;-81
2023/07/07 01:47:14;;;;;;;14.67;8.70;;;;;;;;;;5033047;28;20418;-80
2023/07/07 01:49:44;;;;;;;13.93;9.50;;;;;;;;;;5029890;28;20477;-80
2023/07/07 01:52:12;;;;;;;10.73;9.63;;;;;;;;;;5029356;28;20459;-81
2023/07/07 01:54:42;;;;;;;10.37;9.27;;;;;;;;;;5027608;28;20454;-80
2023/07/07 01:57:09;;;;;;;10.17;9.17;;;;;;;;;;5026563;28;20430;-81
2023/07/07 01:59:36;;;;;;;10.13;9.03;;;;;;;;;;5030039;28;20440;-80
2023/07/07 02:02:02;;;;;;;9.60;8.63;;;;;;;;;;5018896;28;20525;-81
2023/07/07 02:04:30;;;;;;;11.00;9.03;;;;;;;;;;5044712;28;20477;-80
2023/07/07 02:06:58;;;;;;;12.37;8.70;;;;;;;;;;5042841;28;20467;-80
2023/07/07 02:09:25;;;;;;;11.40;9.07;;;;;;;;;;5051111;28;20539;-80
2023/07/07 02:11:51;;;;;;;9.63;8.73;;;;;;;;;;5044301;28;20451;-80
2023/07/07 02:14:18;;;;;;;11.30;9.60;;;;;;;;;;5051253;28;20483;-80
2023/07/07 02:16:44;;;;;;;11.03;9.97;;;;;;;;;;5047756;28;20423;-80
2023/07/07 02:19:11;;;;;;;10.07;9.17;;;;;;;;;;5031084;28;20483;-80
2023/07/07 02:21:38;;;;;;;12.43;11.23;;;;;;;;;;5031083;28;20458;-81
2023/07/07 02:24:06;;;;;;;12.57;10.47;;;;;;;;;;5031797;28;20458;-80
2023/07/07 02:26:33;;;;;;;10.67;9.47;;;;;;;;;;5023264;28;20483;-80
2023/07/07 02:28:59;;;;;;;16.20;12.00;;;;;;;;;;5029599;28;20451;-81
2023/07/07 02:31:26;;;;;;;11.87;10.67;;;;;;;;;;5031939;28;20495;-80
2023/07/07 02:33:54;;;;;;;10.73;9.73;;;;;;;;;;5028911;28;20458;-80
2023/07/07 02:36:20;;;;;;;13.80;10.80;;;;;;;;;;5030240;28;20419;-80
2023/07/07 02:38:47;;;;;;;9.90;8.90;;;;;;;;;;5021212;28;20515;-80
2023/07/07 02:41:15;;;;;;;12.63;9.50;;;;;;;;;;5031491;28;20534;-80
2023/07/07 02:43:42;;;;;;;10.53;9.40;;;;;;;;;;5027307;28;20484;-81
2023/07/07 02:46:09;;;;;;;11.90;10.37;;;;;;;;;;5031003;28;20506;-80
2023/07/07 02:48:35;;;;;;;17.77;12.67;;;;;;;;;;5029846;28;20479;-81
2023/07/07 02:51:03;;;;;;;12.70;11.40;;;;;;;;;;5030133;28;20459;-80
2023/07/07 02:53:31;;;;;;;12.30;11.00;;;;;;;;;;5032011;28;20450;-80
2023/07/07 02:55:57;;;;;;;13.30;11.53;;;;;;;;;;5026257;28;20823;-80
2023/07/07 02:58:26;;;;;;;12.87;11.50;;;;;;;;;;5031798;28;20848;-81
2023/07/07 03:00:54;;;;;;;15.30;11.43;;;;;;;;;;5032151;28;20431;-80
2023/07/07 03:03:26;;;;;;;14.13;12.33;;;;;;;;;;5031827;28;20449;-80
2023/07/07 03:05:52;;;;;;;15.27;11.50;;;;;;;;;;5033999;28;20452;-81
2023/07/07 03:08:19;;;;;;;20.70;12.13;;;;;;;;;;5037236;28;20458;-80
2023/07/07 03:10:45;;;;;;;15.53;13.23;;;;;;;;;;5051315;28;20482;-80
2023/07/07 03:13:12;;;;;;;15.50;13.87;;;;;;;;;;5050209;28;20471;-80
2023/07/07 03:15:40;;;;;;;14.83;12.60;;;;;;;;;;5056015;28;20426;-80
2023/07/07 03:18:08;;;;;;;15.83;12.30;;;;;;;;;;5043939;28;20446;-80
2023/07/07 03:20:34;;;;;;;14.10;12.13;;;;;;;;;;5054802;28;20436;-80
2023/07/07 03:23:01;;;;;;;16.77;13.13;;;;;;;;;;5047367;28;20480;-81
2023/07/07 03:25:27;;;;;;;17.27;14.33;;;;;;;;;;5044065;28;20423;-81
2023/07/07 03:27:54;;;;;;;13.30;12.00;;;;;;;;;;5052117;28;20463;-80
2023/07/07 03:30:20;;;;;;;14.97;13.37;;;;;;;;;;5054153;28;20419;-81
2023/07/07 03:32:50;;;;;;;17.77;13.80;;;;;;;;;;5049310;28;20443;-81
2023/07/07 03:35:17;;;;;;;19.53;13.53;;;;;;;;;;5049082;28;20426;-80
2023/07/07 03:37:45;;;;;;;14.17;12.70;;;;;;;;;;5047693;28;20479;-81
2023/07/07 03:40:11;;;;;;;14.67;12.50;;;;;;;;;;5054440;28;20414;-80
2023/07/07 03:42:38;;;;;;;12.50;11.30;;;;;;;;;;5054348;28;20795;-81
2023/07/07 03:45:04;;;;;;;14.97;12.03;;;;;;;;;;5052570;28;20850;-80
2023/07/07 03:47:31;;;;;;;14.67;12.10;;;;;;;;;;5050932;28;20471;-81
2023/07/07 03:49:59;;;;;;;15.10;12.10;;;;;;;;;;5041972;28;20430;-81
2023/07/07 03:52:25;;;;;;;15.07;11.97;;;;;;;;;;5051992;28;20484;-81
2023/07/07 03:54:52;;;;;;;12.37;11.07;;;;;;;;;;5054508;28;20939;-80
2023/07/07 03:57:18;;;;;;;18.07;11.03;;;;;;;;;;5054729;28;20454;-80
2023/07/07 03:59:45;;;;;;;17.70;12.70;;;;;;;;;;5053531;28;20835;-80
2023/07/07 04:02:13;;;;;;;17.17;12.23;;;;;;;;;;5054741;28;20434;-81
2023/07/07 04:04:41;;;;;;;15.70;13.53;;;;;;;;;;5047227;28;21013;-81
2023/07/07 04:07:09;;;;;;;15.67;12.23;;;;;;;;;;5050595;28;20422;-81
2023/07/07 04:09:37;;;;;;;17.80;13.10;;;;;;;;;;5051805;28;20445;-81
2023/07/07 04:12:03;;;;;;;15.73;12.10;;;;;;;;;;5051062;28;20474;-81
2023/07/07 04:14:30;;;;;;;13.33;11.97;;;;;;;;;;5051919;28;20475;-81
2023/07/07 04:16:56;;;;;;;14.10;11.57;;;;;;;;;;5053982;28;20535;-81
2023/07/07 04:19:23;;;;;;;15.07;13.47;;;;;;;;;;5046411;28;20805;-80
2023/07/07 04:21:49;;;;;;;14.50;12.90;;;;;;;;;;5046371;28;20427;-81
2023/07/07 04:24:18;;;;;;;12.60;11.30;;;;;;;;;;5052651;28;20479;-81
2023/07/07 04:26:45;;;;;;;16.20;12.20;;;;;;;;;;5043530;28;20438;-81
2023/07/07 04:29:11;;;;;;;13.17;10.60;;;;;;;;;;5047764;28;20508;-81
2023/07/07 04:31:37;;;;;;;20.40;12.20;;;;;;;;;;5046240;28;21019;-81
2023/07/07 04:34:04;;;;;;;15.00;11.50;;;;;;;;;;5039048;28;20454;-81
2023/07/07 04:36:30;;;;;;;12.33;10.20;;;;;;;;;;5049526;28;20434;-81
2023/07/07 04:38:57;;;;;;;15.70;14.20;;;;;;;;;;5051589;28;20490;-81
2023/07/07 04:41:25;;;;;;;29.13;12.50;;;;;;;;;;5053432;28;20962;-81
2023/07/07 04:43:52;;;;;;;12.87;11.43;;;;;;;;;;5048505;28;20475;-80
2023/07/07 04:46:20;;;;;;;13.10;11.80;;;;;;;;;;5053339;28;20800;-81
2023/07/07 04:48:48;;;;;;;12.80;11.50;;;;;;;;;;5050809;28;20450;-80
2023/07/07 04:51:14;;;;;;;14.17;12.70;;;;;;;;;;5053699;28;20479;-81
2023/07/07 04:53:41;;;;;;;14.50;13.00;;;;;;;;;;5050106;28;20442;-81
2023/07/07 04:56:09;;;;;;;17.30;13.27;;;;;;;;;;5041399;28;20518;-81
2023/07/07 04:58:38;;;;;;;15.27;13.37;;;;;;;;;;5051518;28;20446;-80
2023/07/07 05:01:07;;;;;;;14.80;13.10;;;;;;;;;;5052149;28;20430;-80
2023/07/07 05:03:34;;;;;;;16.90;14.40;;;;;;;;;;5047097;28;20457;-82
2023/07/07 05:06:03;;;;;;;16.70;15.00;;;;;;;;;;5053487;28;20463;-81
2023/07/07 05:08:29;;;;;;;15.63;14.03;;;;;;;;;;5052731;28;20459;-81
2023/07/07 05:10:55;;;;;;;16.80;14.87;;;;;;;;;;5044879;28;20439;-80
2023/07/07 05:13:22;;;;;;;19.63;15.70;;;;;;;;;;5050037;28;20815;-81
2023/07/07 05:15:49;;;;;;;17.73;15.93;;;;;;;;;;5053799;28;20525;-81
2023/07/07 05:18:16;;;;;;;18.90;15.47;;;;;;;;;;5049230;28;20494;-81
2023/07/07 05:20:43;;;;;;;16.47;14.77;;;;;;;;;;5053838;28;20478;-81
2023/07/07 05:23:09;;;;;;;15.03;13.63;;;;;;;;;;5049650;28;21019;-81
2023/07/07 05:25:36;;;;;;;16.97;15.07;;;;;;;;;;5048666;28;20447;-81
2023/07/07 05:28:02;;;;;;;19.90;14.90;;;;;;;;;;5045374;28;20476;-81
2023/07/07 05:30:28;;;;;;;16.63;15.00;;;;;;;;;;5051407;28;20427;-81
2023/07/07 05:32:56;;;;;;;16.23;14.13;;;;;;;;;;5049319;28;20479;-81
2023/07/07 05:35:22;;;;;;;18.63;14.23;;;;;;;;;;5052101;28;20467;-81
2023/07/07 05:37:49;;;;;;;15.53;13.90;;;;;;;;;;5050927;28;20442;-81
2023/07/07 05:40:16;;;;;;;16.93;15.03;;;;;;;;;;5045679;28;20451;-81
2023/07/07 05:42:42;;;;;;;14.70;13.20;;;;;;;;;;5047982;28;20448;-81
2023/07/07 05:45:10;;;;;;;18.30;14.37;;;;;;;;;;5052396;28;20419;-81
2023/07/07 05:47:37;;;;;;;14.67;13.23;;;;;;;;;;5048138;28;20486;-80
2023/07/07 05:50:05;;;;;;;13.67;12.10;;;;;;;;;;5042352;28;20825;-79
2023/07/07 05:52:32;;;;;;;18.77;14.27;;;;;;;;;;5049677;28;20471;-81
2023/07/07 05:54:58;;;;;;;15.77;11.73;;;;;;;;;;5051118;28;20962;-81
2023/07/07 05:57:24;;;;;;;12.93;11.63;;;;;;;;;;5037719;28;20541;-81
2023/07/07 05:59:51;;;;;;;13.13;11.87;;;;;;;;;;5051853;28;20837;-81
2023/07/07 06:02:17;;;;;;;13.00;10.83;;;;;;;;;;5053082;28;20937;-81
2023/07/07 06:04:43;;;;;;;15.27;13.13;;;;;;;;;;5051808;28;20471;-81
2023/07/07 06:07:11;;;;;;;13.00;11.30;;;;;;;;;;5050648;28;20561;-81
2023/07/07 06:09:37;;;;;;;12.83;11.63;;;;;;;;;;5048340;28;20464;-81
2023/07/07 06:12:04;;;;;;;12.00;10.90;;;;;;;;;;5052014;28;20497;-81
2023/07/07 06:14:31;;;;;;;16.43;10.90;;;;;;;;;;5049270;28;20480;-81
2023/07/07 06:16:57;;;;;;;12.53;10.73;;;;;;;;;;5038569;28;20461;-80
2023/07/07 06:19:25;;;;;;;10.60;9.50;;;;;;;;;;5048958;28;20472;-81
2023/07/07 06:21:51;;;;;;;9.93;8.93;;;;;;;;;;5049998;28;20455;-81
2023/07/07 06:24:19;;;;;;;11.83;9.40;;;;;;;;;;5036115;28;20852;-81
2023/07/07 06:26:47;;;;;;;10.13;8.93;;;;;;;;;;5028261;28;20456;-80
2023/07/07 06:29:13;;;;;;;12.37;8.77;;;;;;;;;;5027091;28;20993;-81
2023/07/07 06:31:39;;;;;;;11.87;8.70;;;;;;;;;;5031642;28;20484;-81
2023/07/07 06:34:06;;;;;;;11.17;8.30;;;;;;;;;;5031393;28;20480;-81
2023/07/07 06:36:32;;;;;;;8.40;7.50;;;;;;;;;;5031794;28;20461;-81
2023/07/07 06:38:59;;;;;;;9.77;7.67;;;;;;;;;;5023465;28;20531;-81
2023/07/07 06:41:26;;;;;;;8.67;7.87;;;;;;;;;;5035579;28;20452;-81
2023/07/07 06:43:53;;;;;;;10.63;7.83;;;;;;;;;;5032018;28;20853;-81
2023/07/07 06:46:22;;;;;;;8.77;7.40;;;;;;;;;;5032396;28;20453;-81
2023/07/07 06:48:49;;;;;;;10.70;8.20;;;;;;;;;;5035633;28;20481;-81
2023/07/07 06:51:15;;;;;;;9.10;7.10;;;;;;;;;;5028590;28;20448;-80
2023/07/07 06:53:41;;;;;;;7.43;6.73;;;;;;;;;;5036178;28;20464;-81
2023/07/07 06:56:09;;;;;;;8.03;6.70;;;;;;;;;;5033458;28;20444;-81
2023/07/07 06:58:38;;;;;;;8.23;6.83;;;;;;;;;;5032652;28;20479;-81
2023/07/07 07:01:04;;;;;;;8.37;7.30;;;;;;;;;;5036259;28;20464;-80
2023/07/07 07:03:31;;;;;;;6.77;6.17;;;;;;;;;;5033386;28;20468;-81
2023/07/07 07:05:57;;;;;;;7.67;6.83;;;;;;;;;;5025232;28;20818;-81
2023/07/07 07:08:23;;;;;;;10.40;6.80;;;;;;;;;;5031696;28;20479;-81
2023/07/07 07:10:50;;;;;;;10.03;6.80;;;;;;;;;;5029363;28;20819;-81
2023/07/07 07:13:16;;;;;;;9.90;7.30;;;;;;;;;;5032980;28;20469;-81
2023/07/07 07:15:44;;;;;;;9.63;7.37;;;;;;;;;;5035072;28;20460;-81
2023/07/07 07:18:11;;;;;;;8.03;6.43;;;;;;;;;;5029781;28;20485;-81
2023/07/07 07:20:38;;;;;;;10.07;7.20;;;;;;;;;;5034002;28;20452;-80
2023/07/07 07:23:06;;;;;;;7.07;6.37;;;;;;;;;;5024892;28;20480;-81
2023/07/07 07:25:32;;;;;;;6.97;6.30;;;;;;;;;;5035965;28;20452;-80
2023/07/07 07:27:59;;;;;;;11.30;7.37;;;;;;;;;;5034140;28;20468;-80
2023/07/07 07:30:25;;;;;;;9.50;7.67;;;;;;;;;;5034329;28;20460;-81
2023/07/07 07:32:53;;;;;;;7.07;6.37;;;;;;;;;;5032381;28;20480;-80
2023/07/07 07:35:19;;;;;;;7.80;6.27;;;;;;;;;;5052402;28;20471;-80
2023/07/07 07:37:45;;;;;;;9.00;6.33;;;;;;;;;;5043538;28;20496;-81
2023/07/07 07:40:12;;;;;;;5.87;5.27;;;;;;;;;;5056569;28;20476;-79
2023/07/07 07:42:41;;;;;;;7.10;5.50;;;;;;;;;;5044250;28;20459;-79
2023/07/07 07:45:09;;;;;;;7.40;5.87;;;;;;;;;;5041987;28;20468;-80
2023/07/07 07:47:35;;;;;;;7.40;5.17;;;;;;;;;;5049755;28;20983;-79
2023/07/07 07:50:05;;;;;;;6.90;4.53;;;;;;;;;;5047355;28;20985;-81
2023/07/07 07:52:32;;;;;;;7.00;5.37;;;;;;;;;;5047800;28;20484;-80
2023/07/07 07:54:58;;;;;;;7.30;5.90;;;;;;;;;;5053751;28;20486;-80
2023/07/07 07:57:27;;;;;;;6.03;4.10;;;;;;;;;;5052649;28;20475;-80
2023/07/07 07:59:53;;;;;;;5.00;3.90;;;;;;;;;;5055710;28;20448;-81
2023/07/07 08:02:20;;;;;;;8.00;5.60;;;;;;;;;;5047499;28;20460;-81
2023/07/07 08:04:46;;;;;;;6.03;3.80;;;;;;;;;;5053735;28;20466;-81
2023/07/07 08:07:14;;;;;;;4.80;4.23;;;;;;;;;;5044826;28;20459;-81
2023/07/07 08:09:41;;;;;;;4.90;4.40;;;;;;;;;;5047291;28;20448;-81
2023/07/07 08:12:09;;;;;;;4.33;3.80;;;;;;;;;;5049947;28;20483;-81
2023/07/07 08:14:35;;;;;;;5.33;3.30;;;;;;;;;;5052367;28;20451;-79
2023/07/07 08:17:04;;;;;;;5.17;4.20;;;;;;;;;;5054954;28;20484;-79
2023/07/07 08:19:31;;;;;;;6.53;3.97;;;;;;;;;;5051469;28;20470;-80
2023/07/07 08:21:58;;;;;;;6.80;3.17;;;;;;;;;;5051613;28;20545;-79
2023/07/07 08:24:26;;;;;;;3.60;3.30;;;;;;;;;;5054556;28;20440;-80
2023/07/07 08:26:53;;;;;;;6.10;3.33;;;;;;;;;;5053679;28;20989;-80
2023/07/07 08:29:19;;;;;;;3.40;2.77;;;;;;;;;;5050272;28;20993;-80
2023/07/07 08:31:46;;;;;;;3.80;3.13;;;;;;;;;;5050723;28;20482;-80
2023/07/07 08:34:12;;;;;;;4.90;3.23;;;;;;;;;;5054299;28;20973;-79
2023/07/07 08:36:39;;;;;;;6.33;3.20;;;;;;;;;;5051601;28;20468;-80
2023/07/07 08:39:13;;;;;;;4.30;3.30;;;;;;;;;;5052179;28;20460;-80
2023/07/07 08:41:43;;;;;;;3.80;3.00;;;;;;;;;;5054530;28;20479;-80
2023/07/07 08:44:12;;;;;;;4.40;3.47;;;;;;;;;;5054199;28;20930;-80
2023/07/07 08:46:41;;;;;;;4.80;3.17;;;;;;;;;;5046121;28;20480;-80
2023/07/07 08:49:12;;;;;;;4.40;3.40;;;;;;;;;;5050500;28;20485;-81
2023/07/07 08:51:42;;;;;;;4.63;3.37;;;;;;;;;;5046946;28;20474;-80
2023/07/07 08:54:14;;;;;;;6.33;2.80;;;;;;;;;;5049748;28;20491;-80
2023/07/07 08:56:47;;;;;;;8.33;3.60;;;;;;;;;;5041030;28;20494;-79
2023/07/07 08:59:18;;;;;;;3.57;3.03;;;;;;;;;;5050901;28;20473;-80
2023/07/07 09:01:48;;;;;;;4.03;3.10;;;;;;;;;;5025916;28;20842;-80
2023/07/07 09:04:27;;;;;;;4.77;3.10;;;;;;;;;;5026223;28;20445;-80
2023/07/07 09:07:04;;;;;;;7.60;2.93;;;;;;;;;;5026686;28;20476;-80
2023/07/07 09:09:41;;;;;;;3.70;2.50;;;;;;;;;;5031595;28;20938;-80
2023/07/07 09:12:15;;;;;;;3.80;2.80;;;;;;;;;;5032296;28;20833;-80
2023/07/07 09:14:43;;;;;;;6.73;3.67;;;;;;;;;;5024004;28;20457;-81
2023/07/07 09:17:15;;;;;;;3.23;2.93;;;;;;;;;;5035100;28;20455;-81
2023/07/07 09:19:46;;;;;;;3.60;2.60;;;;;;;;;;5019849;28;20464;-80
2023/07/07 09:22:18;;;;;;;6.67;3.47;;;;;;;;;;5031310;28;20452;-80
2023/07/07 09:24:48;;;;;;;3.67;2.60;;;;;;;;;;5031526;28;20954;-80
2023/07/07 09:27:19;;;;;;;6.20;3.30;;;;;;;;;;5031617;28;20469;-80
2023/07/07 09:29:46;;;;;;;6.10;3.13;;;;;;;;;;5031580;28;20456;-81
2023/07/07 09:32:15;;;;;;;7.80;3.00;;;;;;;;;;5025911;28;20864;-80
2023/07/07 09:34:41;;;;;;;3.30;3.00;;;;;;;;;;5032229;28;20467;-80
2023/07/07 09:37:13;;;;;;;3.07;2.80;;;;;;;;;;5050761;28;20448;-81
2023/07/07 09:39:50;;;;;;;3.23;2.73;;;;;;;;;;5050107;28;20436;-81
2023/07/07 09:42:24;;;;;;;3.43;2.60;;;;;;;;;;5030321;28;20440;-81
2023/07/07 09:45:00;;;;;;;6.37;2.90;;;;;;;;;;5031481;28;20441;-81
2023/07/07 09:47:29;;;;;;;5.37;3.90;;;;;;;;;;5030378;28;20989;-81
2023/07/07 09:49:59;;;;;;;3.73;2.77;;;;;;;;;;5030403;28;20548;-81
2023/07/07 09:52:32;;;;;;;4.60;3.10;;;;;;;;;;5030532;28;20464;-81
2023/07/07 09:55:00;;;;;;;4.47;3.23;;;;;;;;;;5016281;28;20462;-81
2023/07/07 09:57:30;;;;;;;4.90;3.03;;;;;;;;;;5034785;28;20465;-80
2023/07/07 09:59:57;;;;;;;6.33;3.40;;;;;;;;;;5031649;28;20476;-81
2023/07/07 10:02:24;;;;;;;4.97;3.10;;;;;;;;;;5034414;28;20456;-81
2023/07/07 10:04:54;;;;;;;3.60;2.90;;;;;;;;;;5025634;28;20453;-80
2023/07/07 10:07:21;;;;;;;3.33;2.70;;;;;;;;;;5024045;28;21333;-80
2023/07/07 10:09:49;;;;;;;7.90;3.10;;;;;;;;;;5031543;28;20468;-79
2023/07/07 10:12:16;;;;;;;4.00;3.60;;;;;;;;;;5029454;28;20456;-80
2023/07/07 10:14:44;;;;;;;4.60;2.93;;;;;;;;;;5032915;28;20903;-80
2023/07/07 10:17:15;;;;;;;5.00;3.67;;;;;;;;;;5035364;28;20455;-79
2023/07/07 10:19:42;;;;;;;6.17;3.00;;;;;;;;;;5038214;28;20444;-80
2023/07/07 10:22:09;;;;;;;5.30;3.13;;;;;;;;;;5035449;28;20837;-80
2023/07/07 10:24:36;;;;;;;3.00;2.47;;;;;;;;;;5026091;28;20453;-80
2023/07/07 10:27:03;;;;;;;6.20;3.40;;;;;;;;;;5033220;28;20853;-79
2023/07/07 10:29:33;;;;;;;5.53;3.30;;;;;;;;;;5035859;28;20460;-79
2023/07/07 10:32:01;;;;;;;3.60;2.90;;;;;;;;;;5031813;28;20559;-80
2023/07/07 10:34:30;;;;;;;3.97;3.10;;;;;;;;;;5035875;28;20473;-81
2023/07/07 10:36:57;;;;;;;3.50;3.10;;;;;;;;;;5037784;28;20476;-79
2023/07/07 10:39:24;;;;;;;4.17;3.13;;;;;;;;;;5023469;28;20453;-79
2023/07/07 10:41:50;;;;;;;4.20;3.13;;;;;;;;;;5034301;28;21028;-80
2023/07/07 10:44:17;;;;;;;5.10;3.53;;;;;;;;;;5032196;28;20442;-79
2023/07/07 10:46:43;;;;;;;7.77;3.10;;;;;;;;;;5029960;28;20484;-79
2023/07/07 10:49:14;;;;;;;4.23;3.13;;;;;;;;;;5034677;28;20469;-80
2023/07/07 10:51:46;;;;;;;4.00;3.60;;;;;;;;;;5033468;28;20546;-79
2023/07/07 10:54:14;;;;;;;5.10;3.93;;;;;;;;;;5036572;28;20476;-80
2023/07/07 10:56:42;;;;;;;4.80;3.47;;;;;;;;;;5031701;28;20484;-79
2023/07/07 10:59:17;;;;;;;5.23;3.60;;;;;;;;;;5033339;28;20476;-80
2023/07/07 11:01:51;;;;;;;4.50;3.67;;;;;;;;;;5030492;28;20483;-79
2023/07/07 11:04:39;;;;;;;3.60;3.17;;;;;;;;;;5036691;28;20459;-80
2023/07/07 11:07:13;;;;;;;4.57;3.13;;;;;;;;;;5038081;28;20456;-80
2023/07/07 11:09:54;;;;;;;4.57;3.50;;;;;;;;;;5031237;28;20460;-80
2023/07/07 11:12:27;;;;;;;3.97;3.60;;;;;;;;;;5051791;28;20460;-80
2023/07/07 11:15:00;;;;;;;5.33;3.50;;;;;;;;;;5047974;28;20475;-81
2023/07/07 11:17:34;;;;;;;4.73;2.97;;;;;;;;;;5054948;28;20464;-81
2023/07/07 11:20:17;;;;;;;4.20;3.13;;;;;;;;;;5039944;28;20466;-81
2023/07/07 11:23:00;;;;;;;4.17;3.27;;;;;;;;;;5031826;28;20455;-80
2023/07/07 11:25:30;;;;;;;6.00;3.70;;;;;;;;;;5032102;28;20479;-81
2023/07/07 11:28:03;;;;;;;4.50;4.10;;;;;;;;;;5029654;28;20469;-80
2023/07/07 11:30:33;;;;;;;4.00;3.60;;;;;;;;;;5038238;28;20479;-81
2023/07/07 11:33:06;;;;;;;3.97;3.30;;;;;;;;;;5029223;28;20841;-80
2023/07/07 11:35:38;;;;;;;4.07;3.67;;;;;;;;;;5030525;28;20464;-79
2023/07/07 11:38:17;;;;;;;6.70;4.20;;;;;;;;;;5036219;28;20470;-81
2023/07/07 11:40:56;;;;;;;5.73;3.23;;;;;;;;;;5038856;28;20472;-79
2023/07/07 11:43:33;;;;;;;5.67;3.80;;;;;;;;;;5030304;28;20452;-79
2023/07/07 11:46:04;;;;;;;3.97;3.40;;;;;;;;;;5036850;28;20479;-79
2023/07/07 11:48:36;;;;;;;4.60;3.77;;;;;;;;;;5035792;28;20491;-81
2023/07/07 11:51:11;;;;;;;4.43;3.87;;;;;;;;;;5033216;28;20477;-80
2023/07/07 11:53:47;;;;;;;4.23;3.30;;;;;;;;;;5031972;28;20480;-80
2023/07/07 11:56:18;;;;;;;5.87;4.37;;;;;;;;;;5028236;28;20472;-80
2023/07/07 11:58:48;;;;;;;6.93;3.80;;;;;;;;;;5035948;28;20465;-80
2023/07/07 12:01:16;;;;;;;4.40;4.00;;;;;;;;;;5024314;28;20472;-80
2023/07/07 12:03:45;;;;;;;5.60;3.13;;;;;;;;;;5036918;28;21059;-81
2023/07/07 12:06:16;;;;;;;5.70;4.17;;;;;;;;;;5033104;28;20475;-81
2023/07/07 12:08:47;;;;;;;7.67;3.43;;;;;;;;;;5032845;28;20461;-80
2023/07/07 12:11:14;;;;;;;7.20;3.90;;;;;;;;;;5034933;28;20473;-81
2023/07/07 12:13:57;;;;;;;12.03;4.23;;;;;;;;;;5036566;28;20491;-80
2023/07/07 12:16:24;;;;;;;4.77;3.57;;;;;;;;;;5027622;28;20484;-79
2023/07/07 12:18:55;;;;;;;6.43;4.90;;;;;;;;;;5033816;28;20528;-80
2023/07/07 12:21:25;;;;;;;7.50;3.60;;;;;;;;;;5020956;28;20476;-80
2023/07/07 12:23:57;;;;;;;7.07;4.10;;;;;;;;;;5032133;28;20946;-81
2023/07/07 12:26:25;;;;;;;4.70;3.67;;;;;;;;;;5035458;28;20523;-81
2023/07/07 12:28:54;;;;;;;4.50;3.67;;;;;;;;;;5036215;28;20468;-80
2023/07/07 12:31:21;;;;;;;4.07;3.67;;;;;;;;;;5025722;28;20483;-80
2023/07/07 12:33:51;;;;;;;4.43;4.03;;;;;;;;;;5033874;28;20476;-81
2023/07/07 12:36:18;;;;;;;3.93;3.53;;;;;;;;;;5015537;28;20484;-81
2023/07/07 12:38:48;;;;;;;4.57;3.60;;;;;;;;;;5027805;28;20488;-80
2023/07/07 12:41:21;;;;;;;7.13;3.60;;;;;;;;;;5035288;28;20472;-80
2023/07/07 12:43:50;;;;;;;4.27;3.70;;;;;;;;;;5036004;28;20527;-81
2023/07/07 12:46:18;;;;;;;4.00;3.60;;;;;;;;;;5027702;28;20477;-80
2023/07/07 12:48:45;;;;;;;4.67;3.70;;;;;;;;;;5031381;28;20472;-80
2023/07/07 12:51:12;;;;;;;6.40;4.23;;;;;;;;;;5030160;28;20477;-81
2023/07/07 12:53:42;;;;;;;5.30;3.80;;;;;;;;;;5036640;28;20489;-81
2023/07/07 12:56:18;;;;;;;4.23;3.20;;;;;;;;;;5027290;28;20849;-81
2023/07/07 12:58:47;;;;;;;5.67;4.43;;;;;;;;;;5035101;28;20484;-80
2023/07/07 13:01:32;;;;;;;5.90;3.93;;;;;;;;;;5024304;28;20476;-80
2023/07/07 13:04:17;;;;;;;5.27;4.27;;;;;;;;;;5025763;28;20839;-81
2023/07/07 13:07:00;;;;;;;5.90;3.73;;;;;;;;;;5033083;28;20480;-81
2023/07/07 13:09:28;;;;;;;5.40;4.47;;;;;;;;;;5025579;28;20977;-81
2023/07/07 13:11:58;;;;;;;8.07;4.97;;;;;;;;;;5031654;28;20499;-81
2023/07/07 13:14:31;;;;;;;8.17;5.07;;;;;;;;;;5034215;28;20519;-81
2023/07/07 13:17:00;;;;;;;6.40;5.50;;;;;;;;;;5028185;28;20481;-80
2023/07/07 13:19:26;;;;;;;6.17;4.37;;;;;;;;;;5030531;28;20488;-79
2023/07/07 13:21:54;;;;;;;6.60;3.93;;;;;;;;;;5030657;28;20857;-79
2023/07/07 13:24:21;;;;;;;7.90;4.90;;;;;;;;;;5032107;28;20461;-79
2023/07/07 13:26:48;;;;;;;5.00;4.33;;;;;;;;;;5026787;28;20473;-79
2023/07/07 13:29:15;;;;;;;8.30;3.63;;;;;;;;;;5032979;28;20487;-78
2023/07/07 13:31:43;;;;;;;6.07;4.20;;;;;;;;;;5020515;28;20500;-78
2023/07/07 13:34:11;;;;;;;4.10;3.70;;;;;;;;;;5026941;28;20481;-79
2023/07/07 13:36:38;;;;;;;7.20;4.50;;;;;;;;;;5028125;28;20477;-79
2023/07/07 13:39:05;;;;;;;5.03;3.97;;;;;;;;;;5033694;28;20473;-79
2023/07/07 13:41:32;;;;;;;7.00;4.70;;;;;;;;;;5035338;28;20475;-79
2023/07/07 13:43:58;;;;;;;8.60;4.70;;;;;;;;;;5027447;28;20449;-78
2023/07/07 13:46:27;;;;;;;5.93;5.30;;;;;;;;;;5026252;28;20471;-78
2023/07/07 13:48:54;;;;;;;7.30;4.47;;;;;;;;;;5027132;28;20484;-79
2023/07/07 13:51:22;;;;;;;6.43;4.20;;;;;;;;;;5034512;28;20472;-78
2023/07/07 13:53:49;;;;;;;7.97;5.00;;;;;;;;;;5030408;28;20491;-79
2023/07/07 13:56:15;;;;;;;4.90;4.40;;;;;;;;;;5031455;28;20481;-78
2023/07/07 13:58:42;;;;;;;5.17;4.37;;;;;;;;;;5021293;28;20497;-80
2023/07/07 14:01:17;;;;;;;7.90;3.57;;;;;;;;;;5026740;28;20473;-80
2023/07/07 14:03:47;;;;;;;5.00;3.83;;;;;;;;;;5024109;28;20456;-80
2023/07/07 14:06:15;;;;;;;5.30;3.80;;;;;;;;;;5026873;28;20851;-79
2023/07/07 14:08:41;;;;;;;4.93;4.10;;;;;;;;;;5025618;28;20483;-80
2023/07/07 14:11:13;;;;;;;6.50;4.33;;;;;;;;;;5027327;28;20477;-79
2023/07/07 14:13:39;;;;;;;5.37;3.80;;;;;;;;;;5019182;28;20448;-80
2023/07/07 14:16:07;;;;;;;10.63;4.13;;;;;;;;;;5030077;28;20465;-81
2023/07/07 14:18:35;;;;;;;5.20;4.60;;;;;;;;;;5035834;28;20465;-79
2023/07/07 14:21:04;;;;;;;5.23;4.00;;;;;;;;;;5035835;28;20468;-79
2023/07/07 14:23:30;;;;;;;8.30;4.33;;;;;;;;;;5034712;28;20464;-79
2023/07/07 14:25:58;;;;;;;6.63;4.60;;;;;;;;;;5034538;28;20469;-80
2023/07/07 14:28:29;;;;;;;6.60;4.60;;;;;;;;;;5029405;28;20464;-80
2023/07/07 14:30:58;;;;;;;6.27;3.67;;;;;;;;;;5033353;28;20462;-80
2023/07/07 14:33:25;;;;;;;17.40;4.87;;;;;;;;;;5030896;28;20468;-80
2023/07/07 14:35:56;;;;;;;5.10;4.30;;;;;;;;;;5030939;28;20465;-81
2023/07/07 14:38:25;;;;;;;6.23;4.20;;;;;;;;;;5033756;28;20819;-79
2023/07/07 14:40:54;;;;;;;5.90;4.27;;;;;;;;;;5035349;28;20476;-79
2023/07/07 14:43:22;;;;;;;5.57;4.03;;;;;;;;;;5027177;28;20448;-78